Time;durP1;ratioP1;P1;durP2;ratioP2;P2;SDS_P1;SDS_P2;PMS_P1;PMS_P2;Temp;Humidity;BMP_temperature;BMP_pressure;BME280_temperature;BME280_humidity;BME280_pressure;Samples;Min_cycle;Max_cycle;Signal;HPM_P1;HPM_P2
2022/03/17 00:00:41;;;;;;;;;;;;;;;4.99;59.45;100796.25;4408786;32;20049;-85
2022/03/17 00:03:07;;;;;;;;;;;;;;;5.16;59.47;100798.06;4408831;32;20466;-85
2022/03/17 00:05:33;;;;;;;;;;;;;;;5.08;59.46;100802.31;4423093;32;20028;-85
2022/03/17 00:07:58;;;;;;;;;;;;;;;5.18;59.47;100803.22;4408857;32;19994;-84
2022/03/17 00:10:23;;;;;;;;;;;;;;;5.07;59.46;100804.88;4408838;32;20015;-85
2022/03/17 00:12:48;;;;;;;;;;;;;;;5.08;59.46;100806.63;4409140;32;20307;-83
2022/03/17 00:15:14;;;;;;;;;;;;;;;4.96;59.46;100809.94;4409056;32;20252;-84
2022/03/17 00:17:41;;;;;;;;;;;;;;;5.00;59.46;100814.31;4422499;32;19996;-84
2022/03/17 00:20:07;;;;;;;;;;;;;;;4.79;59.45;100819.28;4409145;32;20001;-85
2022/03/17 00:22:32;;;;;;;;;;;;;;;4.88;59.46;100819.34;4408927;32;20338;-85
2022/03/17 00:24:57;;;;;;;;;;;;;;;5.16;59.46;100817.84;4423115;32;20009;-85
2022/03/17 00:27:23;;;;;;;;;;;;;;;5.23;59.47;100822.22;4422781;32;20002;-85
2022/03/17 00:29:50;;;;;;;;;;;;;;;5.23;59.47;100820.50;4408941;32;19966;-85
2022/03/17 00:32:15;;;;;;;;;;;;;;;5.27;59.48;100820.53;4423041;32;20002;-86
2022/03/17 00:37:25;;;;;;;;;;;;;;;5.35;59.48;100826.59;4422775;32;20535;-85
2022/03/17 00:39:50;;;;;;;;;;;;;;;5.23;59.47;100820.50;4422731;32;19978;-85
2022/03/17 00:42:16;;;;;;;;;;;;;;;5.19;59.47;100817.88;4408718;32;19994;-85
2022/03/17 00:44:41;;;;;;;;;;;;;;;5.21;59.47;100816.19;4422917;32;20354;-85
2022/03/17 00:47:07;;;;;;;;;;;;;;;4.97;59.46;100813.41;4412372;32;20057;-84
2022/03/17 00:49:32;;;;;;;;;;;;;;;4.84;59.45;100815.03;4408442;32;19982;-85
2022/03/17 00:51:57;;;;;;;;;;;;;;;5.01;59.47;100813.47;4408523;32;20044;-84
2022/03/17 00:54:23;;;;;;;;;;;;;;;4.98;59.46;100812.56;4419069;32;31749;-85
2022/03/17 00:56:48;;;;;;;;;;;;;;;4.90;59.45;100812.50;4423658;32;19989;-84
2022/03/17 00:59:14;;;;;;;;;;;;;;;4.75;59.44;100817.53;4423155;32;24513;-84
2022/03/17 01:01:39;;;;;;;;;;;;;;;4.83;59.45;100821.03;4437795;32;20002;-84
2022/03/17 01:04:04;;;;;;;;;;;;;;;4.91;59.45;100825.41;4437733;32;20329;-85
2022/03/17 01:06:29;;;;;;;;;;;;;;;5.02;59.46;100827.22;4423304;32;20301;-84
2022/03/17 01:08:55;;;;;;;;;;;;;;;5.04;59.46;100822.94;4437543;32;20023;-84
2022/03/17 01:11:20;;;;;;;;;;;;;;;5.13;59.47;100828.16;4423643;32;20023;-85
2022/03/17 01:13:45;;;;;;;;;;;;;;;5.01;59.46;100833.25;4423578;32;20003;-84
2022/03/17 01:16:10;;;;;;;;;;;;;;;4.93;59.45;100835.72;4424876;32;27154;-84
2022/03/17 01:18:35;;;;;;;;;;;;;;;5.11;59.47;100837.59;4427545;32;28983;-84
2022/03/17 01:21:01;;;;;;;;;;;;;;;5.02;59.46;100835.81;4426296;32;26723;-84
2022/03/17 01:23:26;;;;;;;;;;;;;;;4.98;59.46;100839.25;4425587;32;20011;-85
2022/03/17 01:25:51;;;;;;;;;;;;;;;5.00;59.45;100832.38;4439992;32;20025;-84
2022/03/17 01:28:16;;;;;;;;;;;;;;;4.92;59.45;100842.59;4424781;32;19973;-84
2022/03/17 01:30:42;;;;;;;;;;;;;;;5.05;59.47;100832.41;4440058;32;20004;-84
2022/03/17 01:33:07;;;;;;;;;;;;;;;5.04;59.46;100828.97;4439978;32;19977;-86
2022/03/17 01:35:32;;;;;;;;;;;;;;;4.98;59.46;100828.91;4439632;32;20004;-86
2022/03/17 01:37:57;;;;;;;;;;;;;;;5.01;59.47;100828.94;4426069;32;20022;-86
2022/03/17 01:40:22;;;;;;;;;;;;;;;4.92;59.45;100828.84;4425126;32;26070;-86
2022/03/17 01:42:48;;;;;;;;;;;;;;;4.77;59.44;100832.19;4439906;32;20372;-86
2022/03/17 01:45:15;;;;;;;;;;;;;;;4.73;59.45;100825.28;4425114;32;26549;-86
2022/03/17 01:47:40;;;;;;;;;;;;;;;4.71;59.44;100833.81;4426039;32;20345;-84
2022/03/17 01:50:07;;;;;;;;;;;;;;;4.72;59.44;100833.81;4439044;32;32762;-84
2022/03/17 01:52:32;;;;;;;;;;;;;;;4.78;59.44;100825.31;4425331;32;20348;-84
2022/03/17 01:54:58;;;;;;;;;;;;;;;4.65;59.44;100831.19;4422783;32;19982;-84
2022/03/17 01:57:23;;;;;;;;;;;;;;;4.81;59.46;100828.78;4410102;32;19993;-84
2022/03/17 01:59:48;;;;;;;;;;;;;;;4.66;59.44;100840.66;4411724;32;20029;-84
2022/03/17 02:02:14;;;;;;;;;;;;;;;4.54;59.43;100841.41;4410090;32;20008;-84
2022/03/17 02:04:41;;;;;;;;;;;;;;;4.57;59.44;100841.44;4409931;32;20405;-87
2022/03/17 02:07:06;;;;;;;;;;;;;;;4.59;59.44;100844.91;4422858;32;20402;-86
2022/03/17 02:09:32;;;;;;;;;;;;;;;4.45;59.43;100849.03;4409505;32;25254;-86
2022/03/17 02:14:52;;;;;;;;;;;;;;;4.66;59.44;100851.84;4424097;32;19996;-86
2022/03/17 02:17:17;;;;;;;;;;;;;;;4.74;59.45;100851.94;4410023;32;20048;-86
2022/03/17 02:19:42;;;;;;;;;;;;;;;4.84;59.45;100854.59;4423833;32;19993;-86
2022/03/17 02:22:10;;;;;;;;;;;;;;;4.76;59.45;100855.38;4409929;32;20004;-86
2022/03/17 02:27:19;;;;;;;;;;;;;;;4.88;59.45;100858.06;4412244;32;20302;-86
2022/03/17 02:29:45;;;;;;;;;;;;;;;4.86;59.44;100859.75;4410117;32;19981;-86
2022/03/17 02:32:10;;;;;;;;;;;;;;;4.72;59.45;100863.91;4424424;32;19990;-86
2022/03/17 02:34:35;;;;;;;;;;;;;;;4.89;59.45;100860.66;4412090;32;20350;-86
2022/03/17 02:37:01;;;;;;;;;;;;;;;4.90;59.45;100862.38;4409955;32;20012;-85
2022/03/17 02:39:26;;;;;;;;;;;;;;;5.06;59.46;100857.34;4423809;32;20025;-85
2022/03/17 02:41:51;;;;;;;;;;;;;;;4.89;59.45;100875.25;4423323;32;29371;-86
2022/03/17 02:44:16;;;;;;;;;;;;;;;4.89;59.45;100875.25;4409817;32;19981;-86
2022/03/17 02:46:41;;;;;;;;;;;;;;;4.72;59.45;100877.66;4423646;32;20331;-86
2022/03/17 02:49:07;;;;;;;;;;;;;;;4.81;59.45;100875.19;4423613;32;20012;-85
2022/03/17 02:51:32;;;;;;;;;;;;;;;4.76;59.45;100878.59;4423163;32;29526;-85
2022/03/17 02:53:57;;;;;;;;;;;;;;;4.96;59.46;100877.03;4418271;32;20007;-85
2022/03/17 02:56:23;;;;;;;;;;;;;;;4.90;59.45;100887.31;4438810;32;19988;-85
2022/03/17 02:58:48;;;;;;;;;;;;;;;4.96;59.45;100883.91;4425040;32;20000;-86
2022/03/17 03:01:13;;;;;;;;;;;;;;;4.75;59.45;100893.22;4425028;32;20029;-85
2022/03/17 03:03:38;;;;;;;;;;;;;;;4.65;59.44;100893.09;4438895;32;19974;-85
2022/03/17 03:06:04;;;;;;;;;;;;;;;4.76;59.45;100894.06;4439026;32;19978;-85
2022/03/17 03:08:29;;;;;;;;;;;;;;;4.81;59.45;100893.25;4424793;32;20286;-85
2022/03/17 03:10:56;;;;;;;;;;;;;;;4.52;59.43;100900.72;4424545;32;19990;-86
2022/03/17 03:13:22;;;;;;;;;;;;;;;4.60;59.44;100904.22;4425180;32;19997;-85
2022/03/17 03:15:47;;;;;;;;;;;;;;;4.86;59.45;100903.62;4424891;32;20028;-86
2022/03/17 03:18:13;;;;;;;;;;;;;;;4.60;59.44;100908.50;4424539;32;28195;-86
2022/03/17 03:20:39;;;;;;;;;;;;;;;4.43;59.43;100904.87;4425256;32;19985;-86
2022/03/17 03:23:04;;;;;;;;;;;;;;;4.57;59.44;100911.94;4438828;32;20004;-85
2022/03/17 03:25:29;;;;;;;;;;;;;;;4.62;59.43;100897.34;4425235;32;20007;-86
2022/03/17 03:27:54;;;;;;;;;;;;;;;4.40;59.42;100900.56;4424674;32;24780;-85
2022/03/17 03:30:20;;;;;;;;;;;;;;;4.54;59.43;100904.16;4438730;32;24676;-85
2022/03/17 03:32:47;;;;;;;;;;;;;;;4.32;59.42;100897.03;4439143;32;20303;-85
2022/03/17 03:37:57;;;;;;;;;;;;;;;4.24;59.41;100898.63;4426464;32;20040;-86
2022/03/17 03:40:22;;;;;;;;;;;;;;;4.11;59.41;100913.09;4424714;32;20374;-87
2022/03/17 03:42:47;;;;;;;;;;;;;;;4.10;59.41;100916.50;4425098;32;19979;-87
2022/03/17 03:45:13;;;;;;;;;;;;;;;4.24;59.42;100914.09;4425520;32;20416;-87
2022/03/17 03:47:38;;;;;;;;;;;;;;;4.13;59.41;100913.09;4440075;32;19965;-87
2022/03/17 03:50:03;;;;;;;;;;;;;;;4.13;59.41;100919.13;4441532;32;19996;-86
2022/03/17 03:52:29;;;;;;;;;;;;;;;4.09;59.41;100916.50;4433379;32;19989;-87
2022/03/17 03:54:54;;;;;;;;;;;;;;;4.09;59.41;100919.06;4435694;32;20028;-85
2022/03/17 03:57:19;;;;;;;;;;;;;;;4.11;59.41;100922.53;4411252;32;30347;-85
2022/03/17 03:59:44;;;;;;;;;;;;;;;4.10;59.41;100918.22;4409598;32;20312;-85
2022/03/17 04:02:10;;;;;;;;;;;;;;;4.04;59.40;100910.44;4408703;32;25151;-86
2022/03/17 04:04:35;;;;;;;;;;;;;;;4.05;59.40;100907.00;4409043;32;20016;-86
2022/03/17 04:07:01;;;;;;;;;;;;;;;3.79;59.39;100907.53;4409245;32;19985;-86
2022/03/17 04:09:34;;;;;;;;;;;;;;;3.95;59.40;100901.72;4409295;32;20008;-84
2022/03/17 04:11:59;;;;;;;;;;;;;;;3.85;59.40;100894.72;4409297;32;19977;-86
2022/03/17 04:14:24;;;;;;;;;;;;;;;4.04;59.40;100893.25;4423130;32;20023;-86
2022/03/17 04:16:50;;;;;;;;;;;;;;;3.92;59.40;100898.22;4409090;32;20009;-87
2022/03/17 04:19:15;;;;;;;;;;;;;;;3.92;59.40;100891.37;4409048;32;20004;-86
2022/03/17 04:21:40;;;;;;;;;;;;;;;3.88;59.39;100894.75;4409013;32;20040;-86
2022/03/17 04:24:05;;;;;;;;;;;;;;;3.92;59.40;100886.22;4394898;32;20033;-86
2022/03/17 04:26:31;;;;;;;;;;;;;;;4.16;59.41;100892.53;4395846;32;20026;-86
2022/03/17 04:28:56;;;;;;;;;;;;;;;4.21;59.42;100894.31;4390658;32;20351;-86
2022/03/17 04:31:21;;;;;;;;;;;;;;;4.04;59.40;100910.44;4388711;32;20010;-86
2022/03/17 04:33:47;;;;;;;;;;;;;;;3.85;59.40;100920.47;4388617;32;20025;-87
2022/03/17 04:36:12;;;;;;;;;;;;;;;3.85;59.40;100924.75;4388567;32;20058;-86
2022/03/17 04:38:38;;;;;;;;;;;;;;;3.78;59.39;100936.66;4388472;32;20410;-87
2022/03/17 04:41:03;;;;;;;;;;;;;;;3.77;59.39;100941.78;4390226;32;20587;-87
2022/03/17 04:43:28;;;;;;;;;;;;;;;3.80;59.39;100942.72;4388696;32;19997;-87
2022/03/17 04:45:54;;;;;;;;;;;;;;;3.72;59.39;100939.16;4388648;32;27160;-87
2022/03/17 04:48:19;;;;;;;;;;;;;;;3.81;59.39;100931.59;4377654;32;19998;-86
2022/03/17 04:50:44;;;;;;;;;;;;;;;3.94;59.40;100938.63;4377981;32;20006;-86
2022/03/17 04:53:29;;;;;;;;;;;;;;;3.85;59.40;100940.22;4382081;32;20312;-87
2022/03/17 04:55:55;;;;;;;;;;;;;;;3.98;59.41;100939.53;4395072;32;19982;-87
2022/03/17 04:58:20;;;;;;;;;;;;;;;3.81;59.39;100941.87;4407729;32;20016;-86
2022/03/17 05:00:46;;;;;;;;;;;;;;;3.99;59.40;100949.84;4408875;32;19978;-87
2022/03/17 05:03:11;;;;;;;;;;;;;;;4.26;59.41;100944.22;4395236;32;20056;-88
2022/03/17 05:05:38;;;;;;;;;;;;;;;4.63;59.44;100944.66;4409784;32;20357;-88
2022/03/17 05:08:03;;;;;;;;;;;;;;;4.76;59.45;100945.66;4395143;32;20339;-88
2022/03/17 05:10:28;;;;;;;;;;;;;;;4.86;59.45;100945.75;4395035;32;20014;-88
2022/03/17 05:12:54;;;;;;;;;;;;;;;4.87;59.45;100955.22;4409152;32;19982;-86
2022/03/17 05:15:20;;;;;;;;;;;;;;;5.03;59.46;100957.97;4408976;32;20299;-86
2022/03/17 05:17:47;;;;;;;;;;;;;;;5.27;59.47;100967.66;4407759;32;20032;-87
2022/03/17 05:20:12;;;;;;;;;;;;;;;5.15;59.46;100977.00;4395332;32;19990;-86
2022/03/17 05:22:38;;;;;;;;;;;;;;;5.00;59.46;100991.50;4396012;32;20259;-86
2022/03/17 05:25:04;;;;;;;;;;;;;;;5.05;59.46;100990.69;4408139;32;20809;-84
2022/03/17 05:27:30;;;;;;;;;;;;;;;4.88;59.46;100993.06;4409135;32;20000;-83
2022/03/17 05:29:55;;;;;;;;;;;;;;;4.72;59.43;101000.59;4407321;32;20034;-83
2022/03/17 05:32:20;;;;;;;;;;;;;;;4.69;59.44;100993.69;4407889;32;30698;-86
2022/03/17 05:34:45;;;;;;;;;;;;;;;5.29;59.47;100986.59;4409565;32;20034;-85
2022/03/17 05:37:11;;;;;;;;;;;;;;;5.15;59.46;101000.22;4408089;32;19978;-86
2022/03/17 05:39:36;;;;;;;;;;;;;;;5.10;59.47;100998.47;4407226;32;20311;-84
2022/03/17 05:42:01;;;;;;;;;;;;;;;5.44;59.48;101005.69;4407827;32;25625;-84
2022/03/17 05:44:26;;;;;;;;;;;;;;;5.08;59.46;101023.41;4408657;32;20017;-84
2022/03/17 05:46:52;;;;;;;;;;;;;;;4.96;59.45;101026.69;4408086;32;20029;-85
2022/03/17 05:49:17;;;;;;;;;;;;;;;5.24;59.48;101031.31;4407326;32;19978;-84
2022/03/17 05:51:42;;;;;;;;;;;;;;;5.55;59.49;101027.31;4407632;32;20300;-85
2022/03/17 05:54:07;;;;;;;;;;;;;;;5.62;59.50;101035.09;4405604;32;20077;-85
2022/03/17 05:56:33;;;;;;;;;;;;;;;5.62;59.50;101035.09;4408603;32;19987;-85
2022/03/17 05:58:58;;;;;;;;;;;;;;;5.86;59.51;101031.00;4408531;32;20507;-85
2022/03/17 06:01:23;;;;;;;;;;;;;;;6.03;59.51;101033.75;4407033;32;19986;-85
2022/03/17 06:03:48;;;;;;;;;;;;;;;5.98;59.51;101034.56;4408843;32;19971;-85
2022/03/17 06:06:14;;;;;;;;;;;;;;;6.11;59.52;101037.22;4411776;32;19997;-85
2022/03/17 06:08:39;;;;;;;;;;;;;;;6.10;59.52;101048.44;4408495;32;19986;-85
2022/03/17 06:11:06;;;;;;;;;;;;;;;6.15;59.53;101054.53;4407242;32;19971;-85
2022/03/17 06:13:32;;;;;;;;;;;;;;;6.34;59.53;101042.53;4408563;32;20269;-85
2022/03/17 06:15:57;;;;;;;;;;;;;;;6.47;59.54;101053.84;4408388;32;20024;-85
2022/03/17 06:18:22;;;;;;;;;;;;;;;6.48;59.54;101050.41;4408175;32;20020;-85
2022/03/17 06:20:47;;;;;;;;;;;;;;;6.81;59.56;101041.06;4406967;32;20033;-85
2022/03/17 06:23:13;;;;;;;;;;;;;;;6.89;59.57;101052.31;4394318;32;20042;-85
2022/03/17 06:25:38;;;;;;;;;;;;;;;6.96;59.57;101057.50;4408129;32;20154;-85
2022/03/17 06:28:04;;;;;;;;;;;;;;;7.34;59.59;101060.22;4407524;32;19986;-85
2022/03/17 06:30:31;;;;;;;;;;;;;;;7.62;59.61;101066.31;4407486;32;20227;-85
2022/03/17 06:32:56;;;;;;;;;;;;;;;7.90;59.62;101061.13;4394937;32;19973;-85
2022/03/17 06:35:22;;;;;;;;;;;;;;;7.95;59.63;101069.78;4407355;32;20025;-84
2022/03/17 06:37:48;;;;;;;;;;;;;;;8.26;59.64;101058.50;4410203;32;20016;-84
2022/03/17 06:40:14;;;;;;;;;;;;;;;8.56;59.65;101064.53;4411004;32;20255;-85
2022/03/17 06:42:39;;;;;;;;;;;;;;;8.65;59.66;101061.03;4407283;32;20005;-85
2022/03/17 06:45:05;;;;;;;;;;;;;;;8.73;59.67;101054.06;4406865;32;19999;-85
2022/03/17 06:47:30;;;;;;;;;;;;;;;8.87;59.67;101063.56;4407129;32;19988;-85
2022/03/17 06:49:55;;;;;;;;;;;;;;;9.02;59.68;101053.97;4407036;32;19986;-84
2022/03/17 06:52:22;;;;;;;;;;;;;;;9.14;59.69;101051.31;4408152;32;20005;-85
2022/03/17 06:54:47;;;;;;;;;;;;;;;9.22;59.70;101058.16;4408450;32;19974;-85
2022/03/17 06:57:19;;;;;;;;;;;;;;;9.19;59.70;101060.78;4406684;32;20027;-85
2022/03/17 06:59:44;;;;;;;;;;;;;;;9.31;59.70;101064.22;4406802;32;19993;-85
2022/03/17 07:02:10;;;;;;;;;;;;;;;9.27;59.70;101068.56;4407077;32;19986;-85
2022/03/17 07:04:35;;;;;;;;;;;;;;;9.28;59.70;101075.50;4407241;32;19990;-85
2022/03/17 07:07:00;;;;;;;;;;;;;;;9.21;59.70;101072.03;4408629;32;19994;-85
2022/03/17 07:09:25;;;;;;;;;;;;;;;9.31;59.70;101067.66;4408518;32;20255;-85
2022/03/17 07:11:51;;;;;;;;;;;;;;;9.35;59.70;101073.72;4406742;32;32906;-85
2022/03/17 07:14:16;;;;;;;;;;;;;;;9.20;59.70;101079.84;4407467;32;22349;-85
2022/03/17 07:16:41;;;;;;;;;;;;;;;8.91;59.68;101073.06;4407239;32;19990;-85
2022/03/17 07:19:07;;;;;;;;;;;;;;;9.03;59.68;101071.28;4394606;32;19998;-85
2022/03/17 07:21:32;;;;;;;;;;;;;;;9.13;59.69;101071.22;4408713;32;19990;-86
2022/03/17 07:23:57;;;;;;;;;;;;;;;8.91;59.68;101073.06;4409660;32;20051;-85
2022/03/17 07:26:23;;;;;;;;;;;;;;;9.13;59.69;101073.81;4408360;32;22663;-85
2022/03/17 07:28:48;;;;;;;;;;;;;;;9.10;59.69;101075.56;4408630;32;19978;-85
2022/03/17 07:31:13;;;;;;;;;;;;;;;9.13;59.69;101085.94;4394577;32;20312;-84
2022/03/17 07:33:38;;;;;;;;;;;;;;;9.11;59.69;101074.69;4408498;32;20017;-85
2022/03/17 07:36:04;;;;;;;;;;;;;;;9.19;59.69;101078.97;4407173;32;19994;-85
2022/03/17 07:38:29;;;;;;;;;;;;;;;9.27;59.70;101083.28;4407267;32;20020;-85
2022/03/17 07:40:54;;;;;;;;;;;;;;;9.17;59.69;101085.91;4407978;32;21443;-85
2022/03/17 07:43:20;;;;;;;;;;;;;;;9.23;59.70;101079.84;4409208;32;20028;-85
2022/03/17 07:45:46;;;;;;;;;;;;;;;9.24;59.69;101076.38;4393534;32;35614;-85
2022/03/17 07:48:12;;;;;;;;;;;;;;;9.46;59.71;101079.69;4408596;32;19992;-85
2022/03/17 07:50:37;;;;;;;;;;;;;;;9.63;59.71;101075.25;4408397;32;20010;-85
2022/03/17 07:53:02;;;;;;;;;;;;;;;9.68;59.72;101080.41;4407168;32;19986;-85
2022/03/17 07:55:27;;;;;;;;;;;;;;;9.62;59.72;101076.12;4394189;32;19989;-85
2022/03/17 07:57:53;;;;;;;;;;;;;;;9.72;59.73;101083.00;4407012;32;19990;-84
2022/03/17 08:00:18;;;;;;;;;;;;;;;9.78;59.72;101082.09;4393534;32;31555;-84
2022/03/17 08:02:43;;;;;;;;;;;;;;;9.82;59.73;101081.19;4406872;32;20387;-85
2022/03/17 08:05:09;;;;;;;;;;;;;;;9.90;59.74;101081.13;4407408;32;20535;-85
2022/03/17 08:07:34;;;;;;;;;;;;;;;10.04;59.74;101085.34;4395256;32;19978;-84
2022/03/17 08:10:00;;;;;;;;;;;;;;;9.99;59.74;101084.53;4409668;32;19998;-85
2022/03/17 08:12:28;;;;;;;;;;;;;;;10.15;59.74;101080.03;4408927;32;26727;-85
2022/03/17 08:14:53;;;;;;;;;;;;;;;10.15;59.74;101095.63;4401898;32;19950;-84
2022/03/17 08:17:19;;;;;;;;;;;;;;;10.07;59.74;101087.91;4407736;32;19967;-85
2022/03/17 08:19:44;;;;;;;;;;;;;;;10.14;59.74;101094.78;4411594;32;19997;-85
2022/03/17 08:22:09;;;;;;;;;;;;;;;10.15;59.75;101096.50;4407507;32;25324;-85
2022/03/17 08:24:34;;;;;;;;;;;;;;;10.26;59.76;101100.81;4407048;32;30459;-84
2022/03/17 08:27:02;;;;;;;;;;;;;;;10.27;59.75;101103.38;4406868;32;20028;-85
2022/03/17 08:29:27;;;;;;;;;;;;;;;10.39;59.76;101102.41;4406664;32;20013;-85
2022/03/17 08:31:52;;;;;;;;;;;;;;;10.46;59.76;101101.47;4393627;32;24230;-85
2022/03/17 08:34:17;;;;;;;;;;;;;;;10.58;59.78;101101.34;4406445;32;20251;-85
2022/03/17 08:36:43;;;;;;;;;;;;;;;10.73;59.78;101101.19;4407786;32;19989;-85
2022/03/17 08:39:08;;;;;;;;;;;;;;;10.93;59.80;101110.53;4408296;32;20371;-85
2022/03/17 08:41:33;;;;;;;;;;;;;;;11.05;59.80;101102.53;4393325;32;26203;-85
2022/03/17 08:43:58;;;;;;;;;;;;;;;11.18;59.81;101108.47;4406052;32;25625;-85
2022/03/17 08:49:24;;;;;;;;;;;;;;;11.23;59.81;101112.75;4397618;32;20017;-85
2022/03/17 08:51:51;;;;;;;;;;;;;;;11.17;59.81;101119.78;4406227;32;19986;-86
2022/03/17 08:54:16;;;;;;;;;;;;;;;11.19;59.80;101094.56;4407133;32;20329;-85
2022/03/17 08:56:42;;;;;;;;;;;;;;;11.17;59.81;101109.34;4393776;32;19994;-85
2022/03/17 08:59:09;;;;;;;;;;;;;;;11.34;59.81;101115.19;4407551;32;20030;-86
2022/03/17 09:01:37;;;;;;;;;;;;;;;11.30;59.82;101116.97;4406390;32;20528;-85
2022/03/17 09:04:03;;;;;;;;;;;;;;;11.47;59.83;101119.38;4407675;32;19987;-86
2022/03/17 09:06:28;;;;;;;;;;;;;;;11.56;59.83;101115.75;4407819;32;19993;-85
2022/03/17 09:08:54;;;;;;;;;;;;;;;11.80;59.84;101112.81;4407587;32;19982;-86
2022/03/17 09:11:19;;;;;;;;;;;;;;;11.98;59.86;101114.28;4406394;32;19994;-85
2022/03/17 09:13:46;;;;;;;;;;;;;;;11.92;59.85;101125.69;4406458;32;20024;-85
2022/03/17 09:16:11;;;;;;;;;;;;;;;11.95;59.84;101119.56;4407434;32;20002;-85
2022/03/17 09:18:37;;;;;;;;;;;;;;;11.81;59.83;101119.75;4405927;32;19998;-86
2022/03/17 09:21:03;;;;;;;;;;;;;;;12.03;59.85;101111.59;4407441;32;20347;-85
2022/03/17 09:23:29;;;;;;;;;;;;;;;12.33;59.87;101125.91;4407025;32;20847;-85
2022/03/17 09:25:55;;;;;;;;;;;;;;;12.31;59.87;101117.25;4405669;32;19997;-86
2022/03/17 09:28:20;;;;;;;;;;;;;;;12.35;59.87;101113.69;4405758;32;20041;-86
2022/03/17 09:30:45;;;;;;;;;;;;;;;12.42;59.88;101121.37;4406918;32;20016;-86
2022/03/17 09:33:10;;;;;;;;;;;;;;;12.72;59.89;101119.09;4405615;32;20280;-86
2022/03/17 09:35:36;;;;;;;;;;;;;;;12.52;59.88;101117.69;4406883;32;20009;-86
2022/03/17 09:38:02;;;;;;;;;;;;;;;12.63;59.89;101121.87;4408863;32;20010;-85
2022/03/17 09:40:27;;;;;;;;;;;;;;;12.54;59.88;101117.69;4408591;32;20291;-86
2022/03/17 09:43:18;;;;;;;;;;;;;;;12.57;59.89;101113.28;4408860;32;20032;-85
2022/03/17 09:45:41;;;;;;;;;;;;;;;12.56;59.88;101113.31;4410441;32;20052;-85
2022/03/17 09:48:07;;;;;;;;;;;;;;;12.57;59.89;101121.13;4398990;32;19990;-85
2022/03/17 09:50:32;;;;;;;;;;;;;;;12.60;59.88;101113.22;4421025;32;20027;-86
2022/03/17 09:52:59;;;;;;;;;;;;;;;12.48;59.88;101123.88;4405649;32;19975;-85
2022/03/17 09:55:24;;;;;;;;;;;;;;;12.57;59.89;101128.94;4408021;32;20005;-86
2022/03/17 09:57:50;;;;;;;;;;;;;;;12.41;59.87;101129.25;4408573;32;19998;-86
2022/03/17 10:00:15;;;;;;;;;;;;;;;12.46;59.88;101128.25;4394644;32;20350;-86
2022/03/17 10:02:41;;;;;;;;;;;;;;;12.54;59.88;101138.59;4407618;32;20016;-85
2022/03/17 10:05:06;;;;;;;;;;;;;;;12.31;59.87;101133.78;4407572;32;20040;-84
2022/03/17 10:07:35;;;;;;;;;;;;;;;12.50;59.89;101119.47;4408913;32;20024;-84
2022/03/17 10:10:00;;;;;;;;;;;;;;;12.66;59.90;101122.69;4394991;32;20343;-84
2022/03/17 10:12:28;;;;;;;;;;;;;;;12.79;59.89;101118.97;4409144;32;19974;-84
2022/03/17 10:14:54;;;;;;;;;;;;;;;12.72;59.89;101114.72;4410918;32;19992;-84
2022/03/17 10:17:31;;;;;;;;;;;;;;;12.84;59.90;101114.50;4407090;32;22946;-85
2022/03/17 10:20:15;;;;;;;;;;;;;;;12.80;59.89;101109.38;4409057;32;20001;-84
2022/03/17 10:22:50;;;;;;;;;;;;;;;12.88;59.91;101112.69;4407499;32;19992;-85
2022/03/17 10:25:19;;;;;;;;;;;;;;;13.15;59.91;101109.50;4408769;32;20362;-84
2022/03/17 10:27:49;;;;;;;;;;;;;;;13.37;59.93;101109.09;4407452;32;19990;-84
2022/03/17 10:30:15;;;;;;;;;;;;;;;13.49;59.94;101106.22;4407737;32;20062;-84
2022/03/17 10:32:40;;;;;;;;;;;;;;;13.60;59.94;101101.59;4408812;32;19970;-85
2022/03/17 10:35:08;;;;;;;;;;;;;;;13.72;59.96;101105.66;4407767;32;20001;-84
2022/03/17 10:37:34;;;;;;;;;;;;;;;13.82;59.96;101099.34;4407321;32;20005;-84
2022/03/17 10:40:05;;;;;;;;;;;;;;;13.91;59.97;101108.72;4394747;32;20374;-85
2022/03/17 10:42:30;;;;;;;;;;;;;;;13.91;59.96;101106.09;4408652;32;19998;-84
2022/03/17 10:44:58;;;;;;;;;;;;;;;14.06;59.97;101106.59;4407280;32;20245;-85
2022/03/17 10:47:24;;;;;;;;;;;;;;;14.21;59.98;101099.25;4408133;32;19994;-85
2022/03/17 10:50:00;;;;;;;;;;;;;;;14.13;59.97;101107.28;4408308;32;20008;-85
2022/03/17 10:52:25;;;;;;;;;;;;;;;14.38;59.98;101105.75;4407239;32;19978;-85
2022/03/17 10:54:57;;;;;;;;;;;;;;;14.41;59.99;101110.91;4408441;32;19962;-85
2022/03/17 10:57:25;;;;;;;;;;;;;;;14.38;59.98;101118.84;4410461;32;19994;-84
2022/03/17 10:59:51;;;;;;;;;;;;;;;14.37;59.98;101119.75;4408600;32;19990;-85
2022/03/17 11:02:25;;;;;;;;;;;;;;;14.50;59.99;101115.09;4407199;32;19994;-85
2022/03/17 11:04:50;;;;;;;;;;;;;;;14.38;59.98;101129.34;4408435;32;19994;-85
2022/03/17 11:07:16;;;;;;;;;;;;;;;14.27;59.98;101120.91;4408384;32;20030;-85
2022/03/17 11:09:42;;;;;;;;;;;;;;;14.35;59.99;101124.19;4408574;32;19998;-85
2022/03/17 11:12:07;;;;;;;;;;;;;;;14.37;59.98;101124.13;4407169;32;19982;-85
2022/03/17 11:14:33;;;;;;;;;;;;;;;14.59;60.00;101121.84;4407054;32;20022;-85
2022/03/17 11:16:58;;;;;;;;;;;;;;;14.47;60.00;101136.16;4407562;32;20328;-85
2022/03/17 11:19:24;;;;;;;;;;;;;;;14.38;59.98;101134.56;4408035;32;19986;-85
2022/03/17 11:22:00;;;;;;;;;;;;;;;14.53;59.99;101127.25;4408443;32;19982;-84
2022/03/17 11:24:26;;;;;;;;;;;;;;;14.43;59.98;101131.87;4409581;32;20028;-85
2022/03/17 11:26:52;;;;;;;;;;;;;;;14.64;60.00;101131.31;4413549;32;19982;-85
2022/03/17 11:29:26;;;;;;;;;;;;;;;14.92;60.01;101120.09;4407303;32;20695;-85
2022/03/17 11:31:57;;;;;;;;;;;;;;;14.93;60.01;101124.44;4412770;32;20335;-85
2022/03/17 11:34:37;;;;;;;;;;;;;;;14.91;60.01;101119.22;4408571;32;20038;-85
2022/03/17 11:37:22;;;;;;;;;;;;;;;15.19;60.03;101110.56;4408628;32;19996;-85
2022/03/17 11:39:50;;;;;;;;;;;;;;;15.10;60.03;101116.94;4407139;32;20347;-85
2022/03/17 11:42:35;;;;;;;;;;;;;;;14.97;60.02;101121.69;4408249;32;19970;-85
2022/03/17 11:45:07;;;;;;;;;;;;;;;15.16;60.02;101118.53;4408176;32;19986;-85
2022/03/17 11:47:36;;;;;;;;;;;;;;;15.22;60.03;101126.22;4394623;32;19998;-85
2022/03/17 11:50:20;;;;;;;;;;;;;;;15.17;60.03;101123.72;4394350;32;20006;-85
2022/03/17 11:52:49;;;;;;;;;;;;;;;15.26;60.03;101119.97;4407308;32;19988;-85
2022/03/17 11:55:35;;;;;;;;;;;;;;;15.32;60.04;101123.25;4407946;32;20026;-85
2022/03/17 11:58:25;;;;;;;;;;;;;;;15.07;60.02;101127.50;4402320;32;19974;-85
2022/03/17 12:01:12;;;;;;;;;;;;;;;15.38;60.03;101123.97;4407573;32;20066;-85
2022/03/17 12:03:44;;;;;;;;;;;;;;;15.63;60.06;101123.25;4406721;32;20516;-85
2022/03/17 12:06:22;;;;;;;;;;;;;;;15.49;60.05;101120.16;4394125;32;19999;-85
2022/03/17 12:09:01;;;;;;;;;;;;;;;15.48;60.05;101115.81;4406923;32;20010;-85
2022/03/17 12:11:39;;;;;;;;;;;;;;;15.51;60.05;101113.09;4410387;32;20005;-86
2022/03/17 12:16:47;;;;;;;;;;;;;;;15.23;60.04;101120.06;4407958;32;20320;-85
2022/03/17 12:19:32;;;;;;;;;;;;;;;15.15;60.02;101112.44;4406583;32;19991;-85
2022/03/17 12:21:57;;;;;;;;;;;;;;;15.15;60.03;101117.69;4408280;32;19989;-85
2022/03/17 12:24:41;;;;;;;;;;;;;;;15.21;60.03;101120.12;4408227;32;20290;-85
2022/03/17 12:27:27;;;;;;;;;;;;;;;15.30;60.04;101113.72;4407930;32;19997;-85
2022/03/17 12:29:57;;;;;;;;;;;;;;;15.43;60.04;101116.84;4406465;32;20406;-85
2022/03/17 12:32:23;;;;;;;;;;;;;;;15.52;60.04;101113.94;4407186;32;20061;-85
2022/03/17 12:34:52;;;;;;;;;;;;;;;15.69;60.05;101113.47;4407551;32;19993;-85
2022/03/17 12:37:18;;;;;;;;;;;;;;;15.45;60.05;101113.28;4407918;32;19989;-85
2022/03/17 12:39:46;;;;;;;;;;;;;;;15.60;60.05;101110.19;4393637;32;19990;-84
2022/03/17 12:42:17;;;;;;;;;;;;;;;15.52;60.05;101106.94;4406363;32;20335;-86
2022/03/17 12:44:51;;;;;;;;;;;;;;;15.64;60.06;101101.34;4407653;32;20059;-84
2022/03/17 12:47:17;;;;;;;;;;;;;;;15.65;60.06;101110.94;4406479;32;19982;-85
2022/03/17 12:49:42;;;;;;;;;;;;;;;15.62;60.06;101111.03;4407515;32;19990;-85
2022/03/17 12:52:11;;;;;;;;;;;;;;;15.79;60.07;101122.75;4407620;32;19978;-85
2022/03/17 12:54:36;;;;;;;;;;;;;;;15.79;60.07;101117.50;4406012;32;19979;-85
2022/03/17 12:57:02;;;;;;;;;;;;;;;15.60;60.05;101114.59;4407153;32;20308;-85